createdAt,value
2022-12-20T22:44:27.446Z,4.90
2022-12-20T22:45:27.355Z,6.00
2022-12-20T22:46:27.492Z,8.00
2022-12-20T22:47:27.341Z,7.70
2022-12-20T22:48:27.315Z,8.10
2022-12-20T22:49:27.317Z,8.70
2022-12-20T22:50:27.301Z,9.20
2022-12-20T22:51:27.759Z,8.30
2022-12-20T22:52:27.271Z,8.60
2022-12-20T22:53:27.282Z,8.90
2022-12-20T22:54:27.263Z,8.70
2022-12-20T22:55:27.253Z,9.00
2022-12-20T22:56:27.250Z,8.50
2022-12-20T22:57:27.246Z,9.20
2022-12-20T22:58:27.208Z,8.80
2022-12-20T22:59:27.210Z,8.50
2022-12-20T23:00:27.313Z,9.00
2022-12-20T23:01:27.348Z,8.80
2022-12-20T23:02:27.463Z,8.70
2022-12-20T23:03:27.270Z,9.30
2022-12-20T23:04:27.162Z,9.20
2022-12-20T23:05:27.155Z,8.50
2022-12-20T23:06:27.185Z,8.30
2022-12-20T23:07:27.131Z,8.80
2022-12-20T23:08:27.123Z,8.60
2022-12-20T23:09:27.096Z,9.10
2022-12-20T23:10:27.093Z,8.00
2022-12-20T23:11:27.093Z,8.00
2022-12-20T23:12:27.061Z,8.10
2022-12-20T23:13:27.050Z,8.10
2022-12-20T23:14:27.041Z,8.60
2022-12-20T23:15:27.023Z,8.10
2022-12-20T23:16:27.115Z,8.10
2022-12-20T23:17:27.006Z,8.10
2022-12-20T23:18:27.031Z,8.20
2022-12-20T23:19:26.979Z,8.10
2022-12-20T23:20:26.963Z,8.00
2022-12-20T23:21:26.965Z,8.10
2022-12-20T23:22:26.964Z,8.30
2022-12-20T23:23:26.936Z,8.50
2022-12-20T23:24:26.936Z,7.90
2022-12-20T23:25:26.922Z,8.10
2022-12-20T23:26:26.903Z,8.10
2022-12-20T23:27:26.888Z,8.20
2022-12-20T23:28:26.885Z,7.90
2022-12-20T23:29:26.886Z,8.10
2022-12-20T23:30:26.866Z,7.70
2022-12-20T23:31:26.899Z,8.50
2022-12-20T23:32:26.871Z,8.30
2022-12-20T23:33:26.827Z,8.70
2022-12-20T23:34:26.809Z,8.30
2022-12-20T23:35:26.856Z,8.50
2022-12-20T23:36:26.786Z,8.40
2022-12-20T23:37:26.805Z,8.50
2022-12-20T23:38:26.771Z,8.10
2022-12-20T23:39:26.790Z,8.30
2022-12-20T23:40:26.753Z,8.50
2022-12-20T23:41:26.735Z,9.20
2022-12-20T23:42:26.733Z,8.60
2022-12-20T23:43:26.737Z,8.60
2022-12-20T23:44:26.698Z,8.70
2022-12-20T23:45:26.724Z,8.40
2022-12-20T23:46:26.754Z,8.60
2022-12-20T23:47:26.690Z,8.50
2022-12-20T23:48:26.676Z,8.80
2022-12-20T23:49:26.654Z,8.20
2022-12-20T23:50:26.705Z,8.90
2022-12-20T23:51:26.633Z,8.70
2022-12-20T23:52:26.621Z,8.20
2022-12-20T23:53:26.615Z,8.30
2022-12-20T23:54:26.621Z,9.60
2022-12-20T23:55:26.582Z,8.80
2022-12-20T23:56:26.574Z,8.90
2022-12-20T23:57:26.574Z,8.80
2022-12-20T23:58:26.551Z,8.80
2022-12-20T23:59:26.540Z,9.40
